Caernarfon, United Kingdom
Current Conditions -  °F | °C
As of 5:50 PM on Wednesday 26 Nov 2014 (Local Time) from EGOV Reporting Station
Haze Haze  
Wind Chill: 46°   Ceiling: 3800
Heat Index: 46°   Visibility: 4mi
Dew Point: 43°   Wind: 1mph
Humidity: 87%   Direction: 70°ENE
Pressure: 29.83"   Gusts: NA
Location:  53.14°N, 4.27°W
Report Text: EGOV 261750Z 07001KT 7000 HZ OVC038 08/06 Q1010 WHT
Loading
Personal Weather Stations






























Interactive Weather Map New forecast layout! Learn more

10-Day Weather Forecast

Advertisements
Track Severe Weather on mobile